• Join FlightAware (Why Join?)
  • Login
  • US Flag 
02:58AM EST


 

Airport Tracker/Info


-or-


 

Live Flight TrackerFlight Track Log ✈ F-HPJG ✈ 27-Jun-2013 ✈ FAOR / JNB - LFPG / CDG

Flight Track Log - Related Links

Times and Time Zones

All times are in EDT time to prevent confusion due to time zone crossing. See the F-HPJG flight status page for this flight to view local times or setup timezone preferences in your user account.

Time Position Orientation Groundspeed Altitude Reporting Facility
EDT Latitude Longitude Course Direction KTS MPH feet Rate Location/Type
01:15PM -26.1280 28.2360 118° Southeast 2 2  Level FlightAware
01:16PM -26.1280 28.2350 270° West 2 2 420 Level FlightAware
01:18PM -25.8848 28.1531 343° North  Level Estimated
01:19PM -25.7600 28.1112 343° North  Level Estimated
01:20PM -25.6353 28.0694 343° North  Level Estimated
01:20PM -26.1280 28.2360 343° North 7 8  Level FlightAware
01:20PM -26.1280 28.2370 90° East 8 9 720 Level FlightAware
01:21PM -26.1270 28.2380 42° Northeast 13 15 780 Level FlightAware
01:21PM -26.1260 28.2390 42° Northeast 14 16 900 Level FlightAware
01:22PM -26.1230 28.2400 17° North 16 18 960 Level FlightAware
01:23PM -26.1210 28.2400 360° North 18 21 1,080 Level FlightAware
01:23PM -26.1200 28.2400 360° North 19 22 1,200 Level FlightAware
01:23PM -26.1180 28.2410 24° Northeast 17 20 1,260 Level FlightAware
01:24PM -26.1150 28.2420 17° North 18 21 1,440 Level FlightAware
01:24PM -26.1130 28.2430 24° Northeast 18 21 1,620 Level FlightAware
01:25PM -26.1110 28.2430 360° North 16 18 1,980 Level FlightAware
01:25PM -26.1090 28.2440 24° Northeast 9 10 2,340 Level FlightAware
01:25PM -26.1090 28.2450 90° East 9 10 2,760 Level FlightAware
01:26PM -26.1080 28.2460 42° Northeast 7 8 3,720 Level FlightAware
01:27PM -26.1100 28.2450 204° Southwest 39 45 5,100 Level FlightAware
01:27PM -26.1150 28.2440 190° South 90 104 5,300 7,020 Climbing FlightAware
01:27PM -26.1320 28.2390 195° South 173 199 5,300 600 Level FlightAware
01:28PM -26.1480 28.2340 196° South 172 198 5,800 1,680 Climbing FlightAware
01:28PM -26.1720 28.2270 195° South 172 198 6,700 1,680 Climbing FlightAware
01:29PM -26.1950 28.2200 195° South 172 198 7,500 1,320 Climbing FlightAware
01:29PM -26.2190 28.2110 199° South 188 216 8,000 840 Climbing FlightAware
01:30PM -26.2420 28.2030 197° South 222 255 8,300 720 Climbing FlightAware
01:30PM -26.2740 28.1930 196° South 261 300 8,700 960 Climbing FlightAware
01:31PM -26.3100 28.1820 195° South 293 337 9,300 1,740 Climbing FlightAware
01:31PM -26.3420 28.1640 207° Southwest 287 330 10,300 2,100 Climbing FlightAware
01:31PM -26.3520 28.1480 235° Southwest 287 330 10,700 2,160 Climbing FlightAware
01:32PM -26.3570 28.1240 257° West 283 326 11,400 3,420 Climbing FlightAware
01:32PM -26.3440 28.0840 290° West 269 310 13,000 3,060 Climbing FlightAware
01:32PM -26.3280 28.0710 324° Northwest 273 314 13,500 1,920 Climbing FlightAware
01:32PM -26.3090 28.0660 347° North 294 338 14,000 1,620 Climbing FlightAware
01:33PM -26.2530 28.0540 349° North 310 357 15,000 1,320 Climbing FlightAware
01:34PM -26.1690 28.0340 348° North 358 412 16,100 960 Climbing FlightAware
01:35PM -26.1010 28.0180 348° North 396 456 16,600 840 Climbing FlightAware
01:35PM -26.0150 27.9980 348° North 431 496 17,300 1,320 Climbing FlightAware
01:36PM -25.9260 27.9780 349° North 430 495 18,600 2,160 Climbing FlightAware
01:37PM -25.8490 27.9600 348° North 424 488 20,500 2,520 Climbing FlightAware
01:38PM -25.7610 27.9400 348° North 412 474 22,200 1,980 Climbing FlightAware
01:38PM -25.6860 27.9220 348° North 427 491 23,300 1,560 Climbing FlightAware
01:39PM -25.6070 27.9040 348° North 426 490 24,300 1,500 Climbing FlightAware
01:40PM -25.5260 27.8900 351° North 450 518 25,300 1,380 Climbing FlightAware
01:40PM -25.4330 27.8850 357° North 451 519 26,300 1,200 Climbing FlightAware
01:41PM -25.3480 27.8790 356° North 467 537 27,000 1,020 Climbing FlightAware
01:42PM -25.2690 27.8740 357° North 468 539 27,700 1,080 Climbing FlightAware
01:43PM -25.1490 27.8670 357° North 488 562 28,600 1,140 Climbing FlightAware
01:43PM -25.0590 27.8610 357° North 490 564 29,400 960 Climbing FlightAware
01:44PM -24.9780 27.8550 356° North 500 575 29,800 1,080 Climbing FlightAware
01:47PM -24.6389 27.7431 343° North  Level Estimated
01:48PM -24.5140 27.7021 343° North  Level Estimated
01:48PM -24.5180 27.8010 343° North 471 542 34,200  Level FlightAware
01:48PM -24.3960 27.7850 353° North 472 543 35,000 600 Climbing FlightAware
01:49PM -24.3000 27.7720 353° North 480 552 35,000  Level FlightAware
01:49PM -24.2110 27.7610 354° North 478 550 35,000  Level FlightAware
01:50PM -24.1180 27.7480 353° North 478 550 35,000  Level FlightAware
01:51PM -23.9860 27.7310 353° North 480 552 35,000  Level FlightAware
01:52PM -23.9000 27.7190 353° North 480 552 35,000  Level FlightAware
01:53PM -23.8290 27.7100 353° North 480 552 35,000  Level FlightAware
01:54PM -23.7040 27.6930 353° North 480 552 35,000  Level FlightAware
01:54PM -23.6150 27.6810 353° North 480 552 35,000  Level FlightAware
01:55PM -23.4910 27.6650 353° North 481 554 35,000  Level FlightAware
01:56PM -23.3900 27.6520 353° North 482 555 35,000  Level FlightAware
01:57PM -23.2910 27.6390 353° North 482 555 35,000  Level FlightAware
01:57PM -23.2050 27.6270 353° North 482 555 35,000  Level FlightAware
01:58PM -23.1180 27.6200 356° North 485 558 35,000  Level FlightAware
01:59PM -23.0170 27.6140 357° North 483 556 35,000  Level FlightAware
01:59PM -22.9250 27.6070 356° North 483 556 35,000  Level FlightAware
02:02PM -22.6545 27.5191 343° North  Level Estimated
02:03PM -22.5297 27.4787 343° North  Level Estimated
02:03PM -22.5670 27.5790 343° North 483 556 35,000  Level FlightAware
02:03PM -22.5200 27.5760 357° North 483 556 35,000  Level FlightAware
02:04PM -22.4290 27.5690 356° North 483 556 35,000  Level FlightAware
02:05PM -22.3590 27.5640 356° North 483 556 35,000  Level FlightAware
02:06PM -22.2240 27.5530 356° North 483 556 35,000  Level FlightAware
02:07PM -22.1370 27.5470 356° North 483 556 35,000  Level FlightAware
02:07PM -22.0690 27.5420 356° North 483 556 35,000  Level FlightAware
02:08PM -21.9780 27.5350 356° North 483 556 35,000  Level FlightAware
02:09PM -21.9020 27.5290 356° North 483 556 35,000  Level FlightAware
02:09PM -21.8340 27.5240 356° North 483 556 35,000  Level FlightAware
02:12PM -21.5428 27.4300 343° North  Level Estimated
02:13PM -21.4179 27.3898 343° North  Level Estimated
02:14PM -21.2931 27.3496 343° North  Level Estimated
02:15PM -21.1674 27.3093 343° North  Level Estimated
02:16PM -21.0417 27.2691 343° North  Level Estimated
02:17PM -20.9160 27.2289 343° North  Level Estimated
02:18PM -20.7903 27.1888 343° North  Level Estimated
02:19PM -20.6646 27.1487 343° North  Level Estimated
02:20PM -20.5389 27.1087 343° North  Level Estimated
02:21PM -20.4131 27.0688 343° North  Level Estimated
02:22PM -20.2874 27.0290 343° North  Level Estimated
02:23PM -20.1616 26.9892 343° North  Level Estimated
02:24PM -20.0359 26.9495 343° North  Level Estimated
02:25PM -19.9101 26.9098 343° North  Level Estimated
02:26PM -19.7843 26.8702 343° North  Level Estimated
02:27PM -19.6585 26.8307 344° North  Level Estimated
02:28PM -19.5327 26.7912 344° North  Level Estimated
02:29PM -19.4069 26.7518 344° North  Level Estimated
02:30PM -19.2811 26.7124 344° North  Level Estimated
02:31PM -19.1553 26.6731 344° North  Level Estimated
02:32PM -19.0294 26.6339 344° North  Level Estimated
02:33PM -18.9036 26.5947 344° North  Level Estimated
02:34PM -18.7777 26.5556 344° North  Level Estimated
02:35PM -18.6519 26.5166 344° North  Level Estimated
02:36PM -18.5260 26.4776 344° North  Level Estimated
02:37PM -18.4001 26.4386 344° North  Level Estimated
02:38PM -18.2743 26.3998 344° North  Level Estimated
02:39PM -18.1484 26.3609 344° North  Level Estimated
02:40PM -18.0225 26.3222 344° North  Level Estimated
02:41PM -17.8966 26.2834 344° North  Level Estimated
02:42PM -17.7707 26.2448 344° North  Level Estimated
02:43PM -17.6447 26.2062 344° North  Level Estimated
02:44PM -17.5188 26.1676 344° North  Level Estimated
02:45PM -17.3929 26.1291 344° North  Level Estimated
02:46PM -17.2669 26.0907 344° North  Level Estimated
02:47PM -17.1410 26.0523 344° North  Level Estimated
02:48PM -17.0150 26.0140 344° North  Level Estimated
02:49PM -16.8890 25.9757 344° North  Level Estimated
02:50PM -16.7631 25.9374 344° North  Level Estimated
02:51PM -16.6371 25.8992 344° North  Level Estimated
02:52PM -16.5111 25.8611 344° North  Level Estimated
02:53PM -16.3851 25.8230 344° North  Level Estimated
02:54PM -16.2591 25.7850 344° North  Level Estimated
02:55PM -16.1331 25.7470 344° North  Level Estimated
02:56PM -16.0071 25.7090 344° North  Level Estimated
02:57PM -15.8811 25.6712 344° North  Level Estimated
02:58PM -15.7550 25.6333 344° North  Level Estimated
02:59PM -15.6290 25.5955 344° North  Level Estimated
03:00PM -15.5030 25.5578 344° North  Level Estimated
03:01PM -15.3769 25.5200 344° North  Level Estimated
03:02PM -15.2509 25.4824 344° North  Level Estimated
03:03PM -15.1248 25.4448 344° North  Level Estimated
03:04PM -14.9988 25.4072 344° North  Level Estimated
03:05PM -14.8727 25.3697 344° North  Level Estimated
03:06PM -14.7466 25.3322 344° North  Level Estimated
03:07PM -14.6205 25.2947 344° North  Level Estimated
03:08PM -14.4944 25.2573 344° North  Level Estimated
03:09PM -14.3684 25.2200 344° North  Level Estimated
03:10PM -14.2423 25.1827 344° North  Level Estimated
03:11PM -14.1161 25.1454 344° North  Level Estimated
03:12PM -13.9900 25.1082 344° North  Level Estimated
03:13PM -13.8639 25.0710 344° North  Level Estimated
03:14PM -13.7378 25.0338 344° North  Level Estimated
03:15PM -13.6149 24.9977 344° North  Level Estimated
03:16PM -13.4921 24.9616 344° North  Level Estimated
03:17PM -13.3692 24.9255 344° North  Level Estimated
03:18PM -13.2464 24.8895 344° North  Level Estimated
03:19PM -13.1235 24.8535 344° North  Level Estimated
03:20PM -13.0006 24.8175 344° North  Level Estimated
03:21PM -12.8778 24.7816 344° North  Level Estimated
03:22PM -12.7549 24.7457 344° North  Level Estimated
03:23PM -12.6320 24.7099 344° North  Level Estimated
03:24PM -12.5091 24.6741 344° North  Level Estimated
03:25PM -12.3862 24.6383 344° North  Level Estimated
03:26PM -12.2633 24.6025 344° North  Level Estimated
03:27PM -12.1404 24.5668 344° North  Level Estimated
03:28PM -12.0175 24.5311 344° North  Level Estimated
03:29PM -11.8946 24.4955 344° North  Level Estimated
03:30PM -11.7716 24.4599 344° North  Level Estimated
03:31PM -11.6487 24.4243 344° North  Level Estimated
03:32PM -11.5258 24.3887 344° North  Level Estimated
03:33PM -11.4029 24.3532 344° North  Level Estimated
03:34PM -11.2799 24.3177 344° North  Level Estimated
03:35PM -11.1570 24.2822 344° North  Level Estimated
03:36PM -11.0340 24.2468 344° North  Level Estimated
03:37PM -10.9111 24.2114 344° North  Level Estimated
03:38PM -10.7881 24.1760 344° North  Level Estimated
03:39PM -10.6652 24.1407 344° North  Level Estimated
03:40PM -10.5422 24.1054 344° North  Level Estimated
03:41PM -10.4192 24.0701 344° North  Level Estimated
03:42PM -10.2963 24.0348 344° North  Level Estimated
03:43PM -10.1733 23.9996 344° North  Level Estimated
03:44PM -10.0503 23.9644 344° North  Level Estimated
03:45PM -9.9273 23.9292 344° North  Level Estimated
03:46PM -9.8043 23.8940 344° North  Level Estimated
03:47PM -9.6814 23.8589 344° North  Level Estimated
03:48PM -9.5584 23.8238 344° North  Level Estimated
03:49PM -9.4354 23.7887 344° North  Level Estimated
03:50PM -9.3124 23.7537 344° North  Level Estimated
03:51PM -9.1894 23.7186 344° North  Level Estimated
03:52PM -9.0664 23.6836 344° North  Level Estimated
03:53PM -8.9433 23.6487 344° North  Level Estimated
03:54PM -8.8203 23.6137 344° North  Level Estimated
03:55PM -8.6973 23.5788 344° North  Level Estimated
03:56PM -8.5743 23.5439 344° North  Level Estimated
03:57PM -8.4513 23.5090 344° North  Level Estimated
03:58PM -8.3283 23.4741 344° North  Level Estimated
03:59PM -8.2052 23.4393 344° North  Level Estimated
04:00PM -8.0822 23.4044 344° North  Level Estimated
04:01PM -7.9592 23.3696 344° North  Level Estimated
04:02PM -7.8361 23.3349 344° North  Level Estimated
04:03PM -7.7131 23.3001 344° North  Level Estimated
04:04PM -7.5901 23.2654 344° North  Level Estimated
04:05PM -7.4670 23.2306 344° North  Level Estimated
04:06PM -7.3440 23.1959 344° North  Level Estimated
04:07PM -7.2209 23.1613 344° North  Level Estimated
04:08PM -7.0979 23.1266 344° North  Level Estimated
04:09PM -6.9748 23.0920 344° North  Level Estimated
04:10PM -6.8517 23.0574 344° North  Level Estimated
04:11PM -6.7287 23.0227 344° North  Level Estimated
04:12PM -6.6056 22.9881 344° North  Level Estimated
04:13PM -6.4826 22.9536 344° North  Level Estimated
04:14PM -6.3595 22.9190 344° North  Level Estimated
04:15PM -6.2364 22.8845 344° North  Level Estimated
04:16PM -6.1133 22.8500 344° North  Level Estimated
04:17PM -5.9903 22.8155 344° North  Level Estimated
04:18PM -5.8672 22.7810 344° North  Level Estimated
04:19PM -5.7441 22.7465 344° North  Level Estimated
04:20PM -5.6210 22.7120 344° North  Level Estimated
04:21PM -5.4980 22.6776 344° North  Level Estimated
04:22PM -5.3749 22.6432 344° North  Level Estimated
04:23PM -5.2518 22.6087 344° North  Level Estimated
04:24PM -5.1287 22.5743 344° North  Level Estimated
04:25PM -5.0056 22.5399 344° North  Level Estimated
04:26PM -4.8825 22.5056 344° North  Level Estimated
04:27PM -4.7594 22.4712 344° North  Level Estimated
04:28PM -4.6363 22.4369 344° North  Level Estimated
04:29PM -4.5132 22.4025 344° North  Level Estimated
04:30PM -4.3901 22.3682 344° North  Level Estimated
04:31PM -4.2670 22.3339 344° North  Level Estimated
04:32PM -4.1439 22.2996 344° North  Level Estimated
04:33PM -4.0208 22.2653 344° North  Level Estimated
04:34PM -3.8977 22.2310 344° North  Level Estimated
04:35PM -3.7746 22.1967 344° North  Level Estimated
04:36PM -3.6515 22.1624 344° North  Level Estimated
04:37PM -3.5284 22.1282 344° North  Level Estimated
04:38PM -3.4053 22.0939 344° North  Level Estimated
04:39PM -3.2822 22.0597 344° North  Level Estimated
04:40PM -3.1591 22.0254 344° North  Level Estimated
04:41PM -3.0359 21.9912 344° North  Level Estimated
04:42PM -2.9128 21.9570 344° North  Level Estimated
04:43PM -2.7897 21.9228 344° North  Level Estimated
04:44PM -2.6666 21.8886 344° North  Level Estimated
04:45PM -2.5435 21.8544 344° North  Level Estimated
04:46PM -2.4204 21.8202 344° North  Level Estimated
04:47PM -2.2972 21.7860 344° North  Level Estimated
04:48PM -2.1741 21.7519 344° North  Level Estimated
04:49PM -2.0510 21.7177 344° North  Level Estimated
04:50PM -1.9279 21.6835 345° North  Level Estimated
04:51PM -1.8048 21.6494 345° North  Level Estimated
04:52PM -1.6816 21.6152 345° North  Level Estimated
04:53PM -1.5585 21.5811 345° North  Level Estimated
04:54PM -1.4354 21.5469 345° North  Level Estimated
04:55PM -1.3123 21.5128 345° North  Level Estimated
04:56PM -1.1891 21.4786 345° North  Level Estimated
04:57PM -1.0660 21.4445 345° North  Level Estimated
04:58PM -0.9429 21.4104 345° North  Level Estimated
04:59PM -0.8198 21.3762 345° North  Level Estimated
05:00PM -0.6966 21.3421 345° North  Level Estimated
05:01PM -0.5735 21.3080 345° North  Level Estimated
05:02PM -0.4504 21.2739 345° North  Level Estimated
05:03PM -0.3272 21.2397 345° North  Level Estimated
05:04PM -0.2041 21.2056 345° North  Level Estimated
05:05PM -0.0810 21.1715 345° North  Level Estimated
05:06PM 0.0421 21.1374 345° North  Level Estimated
05:07PM 0.1653 21.1033 345° North  Level Estimated
05:08PM 0.2884 21.0692 345° North  Level Estimated
05:09PM 0.4115 21.0350 345° North  Level Estimated
05:10PM 0.5347 21.0009 345° North  Level Estimated
05:11PM 0.6578 20.9668 345° North  Level Estimated
05:12PM 0.7809 20.9326 345° North  Level Estimated
05:13PM 0.9041 20.8985 345° North  Level Estimated
05:14PM 1.0272 20.8644 345° North  Level Estimated
05:15PM 1.1503 20.8303 345° North  Level Estimated
05:16PM 1.2735 20.7961 345° North  Level Estimated
05:17PM 1.3966 20.7620 345° North  Level Estimated
05:18PM 1.5197 20.7278 345° North  Level Estimated
05:19PM 1.6428 20.6937 345° North  Level Estimated
05:20PM 1.7659 20.6595 345° North  Level Estimated
05:21PM 1.8891 20.6254 345° North  Level Estimated
05:22PM 2.0122 20.5912 345° North  Level Estimated
05:23PM 2.1353 20.5571 345° North  Level Estimated
05:24PM 2.2584 20.5229 344° North  Level Estimated
05:25PM 2.3815 20.4887 344° North  Level Estimated
05:26PM 2.5047 20.4545 344° North  Level Estimated
05:27PM 2.6278 20.4203 344° North  Level Estimated
05:28PM 2.7509 20.3861 344° North  Level Estimated
05:29PM 2.8740 20.3519 344° North  Level Estimated
05:30PM 2.9971 20.3177 344° North  Level Estimated
05:31PM 3.1202 20.2835 344° North  Level Estimated
05:32PM 3.2434 20.2493 344° North  Level Estimated
05:33PM 3.3665 20.2150 344° North  Level Estimated
05:34PM 3.4896 20.1808 344° North  Level Estimated
05:35PM 3.6127 20.1465 344° North  Level Estimated
05:36PM 3.7358 20.1123 344° North  Level Estimated
05:37PM 3.8589 20.0780 344° North  Level Estimated
05:38PM 3.9820 20.0437 344° North  Level Estimated
05:39PM 4.1051 20.0094 344° North  Level Estimated
05:40PM 4.2282 19.9751 344° North  Level Estimated
05:41PM 4.3513 19.9408 344° North  Level Estimated
05:42PM 4.4744 19.9065 344° North  Level Estimated
05:43PM 4.5975 19.8722 344° North  Level Estimated
05:44PM 4.7206 19.8378 344° North  Level Estimated
05:45PM 4.8437 19.8034 344° North  Level Estimated
05:46PM 4.9668 19.7691 344° North  Level Estimated
05:47PM 5.0899 19.7347 344° North  Level Estimated
05:48PM 5.2130 19.7003 344° North  Level Estimated
05:49PM 5.3361 19.6659 344° North  Level Estimated
05:50PM 5.4592 19.6315 344° North  Level Estimated
05:51PM 5.5822 19.5970 344° North  Level Estimated
05:52PM 5.7053 19.5625 344° North  Level Estimated
05:53PM 5.8284 19.5281 344° North  Level Estimated
05:54PM 5.9515 19.4936 344° North  Level Estimated
05:55PM 6.0746 19.4591 344° North  Level Estimated
05:56PM 6.1976 19.4246 344° North  Level Estimated
05:57PM 6.3207 19.3900 344° North  Level Estimated
05:58PM 6.4438 19.3555 344° North  Level Estimated
05:59PM 6.5668 19.3209 344° North  Level Estimated
06:00PM 6.6899 19.2863 344° North  Level Estimated
06:01PM 6.8130 19.2517 344° North  Level Estimated
06:02PM 6.9360 19.2171 344° North  Level Estimated
06:03PM 7.0591 19.1825 344° North  Level Estimated
06:04PM 7.1821 19.1478 344° North  Level Estimated
06:05PM 7.3052 19.1132 344° North  Level Estimated
06:06PM 7.4282 19.0785 344° North  Level Estimated
06:07PM 7.5513 19.0438 344° North  Level Estimated
06:08PM 7.6743 19.0090 344° North  Level Estimated
06:09PM 7.7974 18.9743 344° North  Level Estimated
06:10PM 7.9204 18.9395 344° North  Level Estimated
06:11PM 8.0434 18.9047 344° North  Level Estimated
06:12PM 8.1665 18.8699 344° North  Level Estimated
06:13PM 8.2895 18.8351 344° North  Level Estimated
06:14PM 8.4125 18.8002 344° North  Level Estimated
06:15PM 8.5355 18.7653 344° North  Level Estimated
06:16PM 8.6586 18.7304 344° North  Level Estimated
06:17PM 8.7816 18.6955 344° North  Level Estimated
06:18PM 8.9046 18.6605 344° North  Level Estimated
06:19PM 9.0276 18.6256 344° North  Level Estimated
06:20PM 9.1506 18.5906 344° North  Level Estimated
06:21PM 9.2736 18.5556 344° North  Level Estimated
06:22PM 9.3966 18.5205 344° North  Level Estimated
06:23PM 9.5196 18.4855 344° North  Level Estimated
06:24PM 9.6426 18.4504 344° North  Level Estimated
06:25PM 9.7656 18.4152 344° North  Level Estimated
06:26PM 9.8886 18.3801 344° North  Level Estimated
06:27PM 10.0116 18.3449 344° North  Level Estimated
06:28PM 10.1345 18.3097 344° North  Level Estimated
06:29PM 10.2575 18.2745 344° North  Level Estimated
06:30PM 10.3805 18.2392 344° North  Level Estimated
06:31PM 10.5035 18.2040 344° North  Level Estimated
06:32PM 10.6264 18.1686 344° North  Level Estimated
06:33PM 10.7494 18.1333 344° North  Level Estimated
06:34PM 10.8723 18.0979 344° North  Level Estimated
06:35PM 10.9953 18.0625 344° North  Level Estimated
06:36PM 11.1182 18.0271 344° North  Level Estimated
06:37PM 11.2412 17.9916 344° North  Level Estimated
06:38PM 11.3641 17.9562 344° North  Level Estimated
06:39PM 11.4870 17.9206 344° North  Level Estimated
06:40PM 11.6100 17.8851 344° North  Level Estimated
06:41PM 11.7329 17.8495 344° North  Level Estimated
06:42PM 11.8558 17.8139 344° North  Level Estimated
06:43PM 11.9787 17.7783 344° North  Level Estimated
06:44PM 12.1017 17.7426 344° North  Level Estimated
06:45PM 12.2246 17.7069 344° North  Level Estimated
06:46PM 12.3475 17.6711 344° North  Level Estimated
06:47PM 12.4704 17.6354 344° North  Level Estimated
06:48PM 12.5933 17.5996 344° North  Level Estimated
06:49PM 12.7161 17.5637 344° North  Level Estimated
06:50PM 12.8390 17.5278 344° North  Level Estimated
06:51PM 12.9619 17.4919 344° North  Level Estimated
06:52PM 13.0848 17.4560 344° North  Level Estimated
06:53PM 13.2076 17.4200 344° North  Level Estimated
06:54PM 13.3305 17.3840 344° North  Level Estimated
06:55PM 13.4534 17.3479 344° North  Level Estimated
06:56PM 13.5762 17.3118 344° North  Level Estimated
06:57PM 13.6991 17.2757 344° North  Level Estimated
06:58PM 13.8219 17.2395 344° North  Level Estimated
06:59PM 13.9447 17.2033 344° North  Level Estimated
07:00PM 14.0676 17.1671 344° North  Level Estimated
07:01PM 14.1904 17.1308 344° North  Level Estimated
07:02PM 14.3132 17.0945 344° North  Level Estimated
07:03PM 14.4360 17.0581 344° North  Level Estimated
07:04PM 14.5589 17.0217 344° North  Level Estimated
07:05PM 14.6817 16.9853 344° North  Level Estimated
07:06PM 14.8045 16.9488 344° North  Level Estimated
07:07PM 14.9272 16.9123 344° North  Level Estimated
07:08PM 15.0500 16.8757 344° North  Level Estimated
07:09PM 15.1728 16.8391 344° North  Level Estimated
07:10PM 15.2956 16.8024 344° North  Level Estimated
07:11PM 15.4184 16.7657 344° North  Level Estimated
07:12PM 15.5411 16.7290 344° North  Level Estimated
07:13PM 15.6639 16.6922 344° North  Level Estimated
07:14PM 15.7866 16.6554 344° North  Level Estimated
07:15PM 15.9094 16.6185 344° North  Level Estimated
07:16PM 16.0321 16.5816 344° North  Level Estimated
07:17PM 16.1549 16.5446 344° North  Level Estimated
07:18PM 16.2776 16.5076 344° North  Level Estimated
07:19PM 16.4003 16.4706 344° North  Level Estimated
07:20PM 16.5230 16.4335 344° North  Level Estimated
07:21PM 16.6457 16.3963 344° North  Level Estimated
07:22PM 16.7684 16.3591 344° North  Level Estimated
07:23PM 16.8911 16.3219 344° North  Level Estimated
07:24PM 17.0138 16.2846 344° North  Level Estimated
07:25PM 17.1365 16.2472 344° North  Level Estimated
07:26PM 17.2592 16.2099 344° North  Level Estimated
07:27PM 17.3818 16.1724 344° North  Level Estimated
07:28PM 17.5045 16.1349 344° North  Level Estimated
07:29PM 17.6271 16.0974 344° North  Level Estimated
07:30PM 17.7498 16.0598 344° North  Level Estimated
07:31PM 17.8724 16.0222 344° North  Level Estimated
07:32PM 17.9951 15.9845 344° North  Level Estimated
07:33PM 18.1177 15.9467 344° North  Level Estimated
07:34PM 18.2403 15.9089 344° North  Level Estimated
07:35PM 18.3629 15.8710 344° North  Level Estimated
07:36PM 18.4855 15.8331 344° North  Level Estimated
07:37PM 18.6081 15.7952 344° North  Level Estimated
07:38PM 18.7307 15.7571 344° North  Level Estimated
07:39PM 18.8533 15.7191 344° North  Level Estimated
07:40PM 18.9758 15.6810 344° North  Level Estimated
07:41PM 19.0984 15.6428 344° North  Level Estimated
07:42PM 19.2210 15.6045 344° North  Level Estimated
07:43PM 19.3435 15.5662 344° North  Level Estimated
07:44PM 19.4660 15.5279 344° North  Level Estimated
07:45PM 19.5886 15.4895 344° North  Level Estimated
07:46PM 19.7111 15.4510 344° North  Level Estimated
07:47PM 19.8336 15.4125 344° North  Level Estimated
07:48PM 19.9561 15.3739 344° North  Level Estimated
07:49PM 20.0786 15.3352 343° North  Level Estimated
07:50PM 20.2011 15.2965 343° North  Level Estimated
07:51PM 20.3236 15.2577 343° North  Level Estimated
07:52PM 20.4461 15.2189 343° North  Level Estimated
07:53PM 20.5685 15.1800 343° North  Level Estimated
07:54PM 20.6910 15.1411 343° North  Level Estimated
07:55PM 20.8134 15.1020 343° North  Level Estimated
07:56PM 20.9359 15.0630 343° North  Level Estimated
07:57PM 21.0583 15.0238 343° North  Level Estimated
07:58PM 21.1807 14.9846 343° North  Level Estimated
07:59PM 21.3031 14.9453 343° North  Level Estimated
08:00PM 21.4255 14.9060 343° North  Level Estimated
08:01PM 21.5479 14.8666 343° North  Level Estimated
08:02PM 21.6703 14.8271 343° North  Level Estimated
08:03PM 21.7927 14.7875 343° North  Level Estimated
08:04PM 21.9150 14.7479 343° North  Level Estimated
08:05PM 22.0374 14.7083 343° North  Level Estimated
08:06PM 22.1597 14.6685 343° North  Level Estimated
08:07PM 22.2821 14.6287 343° North  Level Estimated
08:08PM 22.4044 14.5888 343° North  Level Estimated
08:09PM 22.5267 14.5488 343° North  Level Estimated
08:10PM 22.6490 14.5088 343° North  Level Estimated
08:11PM 22.7714 14.4687 343° North  Level Estimated
08:12PM 22.8936 14.4285 343° North  Level Estimated
08:13PM 23.0159 14.3883 343° North  Level Estimated
08:14PM 23.1382 14.3480 343° North  Level Estimated
08:15PM 23.2605 14.3076 343° North  Level Estimated
08:16PM 23.3827 14.2671 343° North  Level Estimated
08:17PM 23.5049 14.2266 343° North  Level Estimated
08:18PM 23.6272 14.1860 343° North  Level Estimated
08:19PM 23.7494 14.1453 343° North  Level Estimated
08:20PM 23.8716 14.1045 343° North  Level Estimated
08:21PM 23.9938 14.0637 343° North  Level Estimated
08:22PM 24.1159 14.0227 343° North  Level Estimated
08:23PM 24.2381 13.9817 343° North  Level Estimated
08:24PM 24.3603 13.9407 343° North  Level Estimated
08:25PM 24.4824 13.8995 343° North  Level Estimated
08:26PM 24.6046 13.8583 343° North  Level Estimated
08:27PM 24.7267 13.8169 343° North  Level Estimated
08:28PM 24.8488 13.7755 343° North  Level Estimated
08:29PM 24.9709 13.7341 343° North  Level Estimated
08:30PM 25.0930 13.6925 343° North  Level Estimated
08:31PM 25.2151 13.6509 343° North  Level Estimated
08:32PM 25.3372 13.6091 343° North  Level Estimated
08:33PM 25.4592 13.5673 343° North  Level Estimated
08:34PM 25.5813 13.5254 343° North  Level Estimated
08:35PM 25.7033 13.4834 343° North  Level Estimated
08:36PM 25.8253 13.4414 343° North  Level Estimated
08:37PM 25.9473 13.3992 343° North  Level Estimated
08:38PM 26.0693 13.3569 343° North  Level Estimated
08:39PM 26.1913 13.3146 343° North  Level Estimated
08:40PM 26.3133 13.2722 343° North  Level Estimated
08:41PM 26.4352 13.2297 343° North  Level Estimated
08:42PM 26.5572 13.1871 343° North  Level Estimated
08:43PM 26.6791 13.1444 343° North  Level Estimated
08:44PM 26.8010 13.1016 343° North  Level Estimated
08:45PM 26.9229 13.0587 343° North  Level Estimated
08:46PM 27.0448 13.0158 343° North  Level Estimated
08:47PM 27.1667 12.9727 343° North  Level Estimated
08:48PM 27.2886 12.9296 343° North  Level Estimated
08:49PM 27.4104 12.8863 343° North  Level Estimated
08:50PM 27.5323 12.8429 342° North  Level Estimated
08:51PM 27.6541 12.7995 342° North  Level Estimated
08:52PM 27.7759 12.7560 342° North  Level Estimated
08:53PM 27.8977 12.7123 342° North  Level Estimated
08:54PM 28.0195 12.6686 342° North  Level Estimated
08:54PM 32.2630 15.1110 342° North 40,000  Level FlightAware
08:54PM 32.2880 15.1050 349° North 513 590 40,000  Level FlightAware
08:55PM 32.3760 15.0830 348° North 515 593 40,000  Level FlightAware
08:56PM 32.4880 15.0660 353° North 519 597 40,000  Level FlightAware
08:56PM 32.5930 15.0470 351° North 522 601 40,000  Level FlightAware
08:57PM 32.7270 15.0220 351° North 524 603 40,000  Level FlightAware
08:58PM 32.8350 15.0030 352° North 523 602 40,000  Level FlightAware
08:59PM 32.9400 14.9830 351° North 524 603 40,000  Level FlightAware
08:59PM 33.0250 14.9670 351° North 525 604 40,000  Level FlightAware
09:00PM 33.1280 14.9480 351° North 524 603 40,000  Level FlightAware
09:01PM 33.2640 14.9230 351° North 525 604 40,000  Level FlightAware
09:02PM 33.3730 14.9030 351° North 524 603 40,000  Level FlightAware
09:02PM 33.4690 14.8850 351° North 522 601 40,000  Level FlightAware
09:03PM 33.5760 14.8650 351° North 520 598 40,000  Level FlightAware
09:04PM 33.6730 14.8470 351° North 518 596 40,000  Level FlightAware
09:04PM 33.7540 14.8310 351° North 517 595 40,000  Level FlightAware
09:06PM 33.9300 14.7980 351° North 519 597 40,000  Level FlightAware
09:07PM 34.0620 14.7730 351° North 520 598 40,000  Level FlightAware
09:08PM 34.2520 14.7330 350° North 512 589 40,000  Level FlightAware
09:09PM 34.3500 14.6920 341° North 499 574 40,000  Level FlightAware
09:09PM 34.4370 14.6470 337° Northwest 495 570 40,000  Level FlightAware
09:10PM 34.5310 14.5980 337° Northwest 496 571 40,000  Level FlightAware
09:11PM 34.6240 14.5490 337° Northwest 499 574 40,000  Level FlightAware
09:11PM 34.6990 14.5100 337° Northwest 500 575 40,000  Level FlightAware
09:12PM 34.8060 14.4540 337° Northwest 502 578 40,000  Level FlightAware
09:13PM 34.8930 14.4080 337° Northwest 502 578 40,000  Level FlightAware
09:14PM 34.9780 14.3630 337° Northwest 499 574 40,000  Level FlightAware
09:14PM 35.0610 14.3190 337° Northwest 498 573 40,000  Level FlightAware
09:15PM 35.1470 14.2730 336° Northwest 498 573 40,000  Level FlightAware
09:16PM 35.2420 14.2220 336° Northwest 494 568 40,000  Level FlightAware
09:16PM 35.3340 14.1740 337° Northwest 492 566 40,000  Level FlightAware
09:17PM 35.4180 14.1280 336° Northwest 491 565 40,000  Level FlightAware
09:18PM 35.5120 14.0780 337° Northwest 492 566 40,000  Level FlightAware
09:19PM 35.5960 14.0330 336° Northwest 492 566 40,000  Level FlightAware
09:19PM 35.6890 13.9830 336° Northwest 494 568 40,000  Level FlightAware
09:20PM 35.8060 13.9190 336° Northwest 497 572 40,000  Level FlightAware
09:21PM 35.8910 13.8730 336° Northwest 498 573 40,000  Level FlightAware
09:22PM 35.9810 13.8240 336° Northwest 496 571 40,000  Level FlightAware
09:22PM 36.0640 13.7790 336° Northwest 496 571 40,000  Level FlightAware
09:23PM 36.1520 13.7310 336° Northwest 496 571 40,000  Level FlightAware
09:24PM 36.2440 13.6810 336° Northwest 493 567 40,000  Level FlightAware
09:24PM 36.3310 13.6330 336° Northwest 491 565 40,000  Level FlightAware
09:25PM 36.4430 13.5710 336° Northwest 491 565 40,000  Level FlightAware
09:26PM 36.5270 13.5250 336° Northwest 492 566 40,000  Level FlightAware
09:27PM 36.6200 13.4690 334° Northwest 491 565 40,000  Level FlightAware
09:27PM 36.7070 13.4150 334° Northwest 492 566 40,000  Level FlightAware
09:28PM 36.7910 13.3640 334° Northwest 486 559 40,000  Level FlightAware
09:29PM 36.8740 13.3140 334° Northwest 483 556 40,000  Level FlightAware
09:29PM 36.9550 13.2670 335° Northwest 483 556 40,000  Level FlightAware
09:30PM 37.0310 13.2240 336° Northwest 481 554 40,000  Level FlightAware
09:31PM 37.1320 13.1650 335° Northwest 478 550 40,000  Level FlightAware
09:32PM 37.2160 13.1170 336° Northwest 479 551 40,000  Level FlightAware
09:32PM 37.2980 13.0690 335° Northwest 480 552 40,000  Level FlightAware
09:33PM 37.3780 13.0220 335° Northwest 483 556 40,000  Level FlightAware
09:34PM 37.4700 12.9690 335° Northwest 486 559 40,000  Level FlightAware
09:34PM 37.5460 12.9230 334° Northwest 492 566 40,000  Level FlightAware
09:35PM 37.6430 12.8670 335° Northwest 496 571 40,000  Level FlightAware
09:36PM 37.7380 12.8100 335° Northwest 501 577 40,000  Level FlightAware
09:37PM 37.8220 12.7610 335° Northwest 503 579 40,000  Level FlightAware
09:37PM 37.8950 12.7180 335° Northwest 506 582 40,000  Level FlightAware
09:38PM 37.9890 12.6620 335° Northwest 508 585 40,000  Level FlightAware
09:39PM 38.0930 12.6000 335° Northwest 509 586 40,000  Level FlightAware
09:39PM 38.1830 12.5460 335° Northwest 509 586 40,000  Level FlightAware
09:40PM 38.2760 12.4900 335° Northwest 505 581 40,000  Level FlightAware
09:41PM 38.3590 12.4400 335° Northwest 500 575 40,000  Level FlightAware
09:41PM 38.4430 12.3900 335° Northwest 495 570 40,000  Level FlightAware
09:42PM 38.5320 12.3360 335° Northwest 490 564 40,000  Level FlightAware
09:43PM 38.6140 12.2870 335° Northwest 489 563 40,000  Level FlightAware
09:44PM 38.7010 12.2340 335° Northwest 481 554 40,000  Level FlightAware
09:44PM 38.7810 12.1850 334° Northwest 479 551 40,000  Level FlightAware
09:45PM 38.8620 12.1350 334° Northwest 484 557 40,000  Level FlightAware
09:46PM 38.9530 12.0800 335° Northwest 481 554 40,000  Level FlightAware
09:46PM 39.0430 12.0240 334° Northwest 479 551 40,000  Level FlightAware
09:47PM 39.1150 11.9800 335° Northwest 477 549 40,000  Level FlightAware
09:48PM 39.2150 11.9190 335° Northwest 479 551 40,000  Level FlightAware
09:48PM 39.2940 11.8690 334° Northwest 480 552 40,000  Level FlightAware
09:49PM 39.3730 11.8210 335° Northwest 479 551 40,000  Level FlightAware
09:50PM 39.4520 11.7710 334° Northwest 480 552 40,000  Level FlightAware
09:50PM 39.5350 11.7200 335° Northwest 483 556 40,000  Level FlightAware
09:51PM 39.6340 11.6580 334° Northwest 483 556 40,000  Level FlightAware
09:52PM 39.7140 11.6080 334° Northwest 485 558 40,000  Level FlightAware
09:53PM 39.7970 11.5550 334° Northwest 484 557 40,000  Level FlightAware
09:53PM 39.8780 11.5040 334° Northwest 484 557 40,000  Level FlightAware
09:54PM 39.9660 11.4480 334° Northwest 487 560 40,000  Level FlightAware
09:55PM 40.0480 11.3960 334° Northwest 482 555 40,000  Level FlightAware
09:55PM 40.1360 11.3410 334° Northwest 491 565 40,000  Level FlightAware
09:56PM 40.2290 11.2810 334° Northwest 487 560 40,000  Level FlightAware
09:57PM 40.3110 11.2290 334° Northwest 484 557 40,000  Level FlightAware
09:58PM 40.4020 11.1700 334° Northwest 487 560 40,000  Level FlightAware
09:58PM 40.4800 11.1200 334° Northwest 488 562 40,000  Level FlightAware
09:59PM 40.5640 11.0660 334° Northwest 486 559 40,000  Level FlightAware
10:02PM 40.8417 10.8307 327° Northwest  Level Estimated
10:02PM 40.8560 10.8770 327° Northwest 487 560 40,000  Level FlightAware
10:03PM 41.0880 10.7240 334° Northwest 489 563 40,000  Level FlightAware
10:04PM 41.1680 10.6720 334° Northwest 487 560 40,000  Level FlightAware
10:05PM 41.2800 10.5980 334° Northwest 488 562 40,000  Level FlightAware
10:06PM 41.3760 10.5340 333° Northwest 487 560 40,000  Level FlightAware
10:06PM 41.4650 10.4750 334° Northwest 486 559 40,000  Level FlightAware
10:07PM 41.5410 10.4240 333° Northwest 484 557 40,000  Level FlightAware
10:08PM 41.6290 10.3660 334° Northwest 484 557 40,000  Level FlightAware
10:08PM 41.7140 10.3080 333° Northwest 484 557 40,000  Level FlightAware
10:09PM 41.7990 10.2520 334° Northwest 484 557 40,000  Level FlightAware
10:10PM 41.8750 10.2000 333° Northwest 482 555 40,000  Level FlightAware
10:10PM 41.9550 10.1460 333° Northwest 486 559 40,000  Level FlightAware
10:12PM 42.1110 10.0400 333° Northwest 485 558 40,000  Level FlightAware
10:13PM 42.2050 9.9760 333° Northwest 487 560 40,000  Level FlightAware
10:13PM 42.2830 9.9220 333° Northwest 488 562 40,000  Level FlightAware
10:14PM 42.3550 9.8730 333° Northwest 488 562 40,000  Level FlightAware
10:15PM 42.4490 9.8080 333° Northwest 488 562 40,000  Level FlightAware
10:15PM 42.5410 9.7450 333° Northwest 487 560 40,000  Level FlightAware
10:16PM 42.6210 9.6890 333° Northwest 486 559 40,000  Level FlightAware
10:17PM 42.7360 9.6090 333° Northwest 485 558 40,000  Level FlightAware
10:18PM 42.8480 9.5310 333° Northwest 484 557 40,000  Level FlightAware
10:19PM 42.9280 9.4750 333° Northwest 486 559 40,000  Level FlightAware
10:19PM 43.0160 9.4130 333° Northwest 485 558 40,000  Level FlightAware
10:20PM 43.0880 9.3620 333° Northwest 483 556 40,000  Level FlightAware
10:21PM 43.1720 9.3030 333° Northwest 485 558 40,000  Level FlightAware
10:21PM 43.2720 9.2320 333° Northwest 485 558 40,000  Level FlightAware
10:22PM 43.3480 9.1780 333° Northwest 483 556 40,000  Level FlightAware
10:23PM 43.4200 9.1260 332° Northwest 481 554 40,000  Level FlightAware
10:23PM 43.5190 9.0550 333° Northwest 479 551 40,000  Level FlightAware
10:24PM 43.5980 8.9990 333° Northwest 478 550 40,000  Level FlightAware
10:25PM 43.6800 8.9390 332° Northwest 476 548 40,000  Level FlightAware
10:26PM 43.7590 8.8820 332° Northwest 477 549 40,000  Level FlightAware
10:26PM 43.8400 8.8230 332° Northwest 476 548 40,000  Level FlightAware
10:27PM 43.9230 8.7630 332° Northwest 477 549 40,000  Level FlightAware
10:28PM 44.0060 8.7030 333° Northwest 478 550 40,000  Level FlightAware
10:28PM 44.0890 8.6410 332° Northwest 478 550 40,000  Level FlightAware
10:29PM 44.1750 8.5780 332° Northwest 480 552 40,000  Level FlightAware
10:30PM 44.2820 8.5000 332° Northwest 484 557 40,000  Level FlightAware
10:31PM 44.3610 8.4410 332° Northwest 484 557 40,000  Level FlightAware
10:31PM 44.4470 8.3770 332° Northwest 481 554 40,000  Level FlightAware
10:32PM 44.5310 8.3150 332° Northwest 486 559 40,000  Level FlightAware
10:33PM 44.6180 8.2500 332° Northwest 491 565 40,000  Level FlightAware
10:33PM 44.6980 8.1900 332° Northwest 493 567 40,000  Level FlightAware
10:34PM 44.7820 8.1260 332° Northwest 493 567 40,000  Level FlightAware
10:35PM 44.8670 8.0620 332° Northwest 493 567 40,000  Level FlightAware
10:36PM 44.9520 7.9980 332° Northwest 490 564 40,000  Level FlightAware
10:36PM 45.0380 7.9320 332° Northwest 487 560 40,000  Level FlightAware
10:37PM 45.1180 7.8720 332° Northwest 486 559 40,000  Level FlightAware
10:38PM 45.1880 7.7950 322° Northwest 482 555 40,000  Level FlightAware
10:38PM 45.2610 7.7040 319° Northwest 482 555 40,000  Level FlightAware
10:39PM 45.3380 7.6110 320° Northwest 486 559 40,000  Level FlightAware
10:40PM 45.4080 7.5250 319° Northwest 488 562 40,000  Level FlightAware
10:40PM 45.4760 7.4400 319° Northwest 488 562 40,000  Level FlightAware
10:41PM 45.5440 7.3550 319° Northwest 491 565 40,000  Level FlightAware
10:42PM 45.6240 7.2570 319° Northwest 490 564 40,000  Level FlightAware
10:43PM 45.6920 7.1720 319° Northwest 486 559 40,000  Level FlightAware
10:43PM 45.7630 7.0830 319° Northwest 478 550 40,000  Level FlightAware
10:44PM 45.8310 6.9980 319° Northwest 474 545 40,000  Level FlightAware
10:44PM 45.8770 6.9400 319° Northwest 470 541 40,000  Level FlightAware
10:47PM 46.0722 6.6878 318° Northwest  Level Estimated
10:48PM 46.1664 6.5651 318° Northwest  Level Estimated
10:48PM 46.1460 6.5980 318° Northwest 473 544 40,000  Level FlightAware
10:48PM 46.2620 6.4490 318° Northwest 473 544 40,000  Level FlightAware
10:49PM 46.3340 6.3560 318° Northwest 472 543 40,000  Level FlightAware
10:50PM 46.4190 6.2460 318° Northwest 470 541 40,000  Level FlightAware
10:51PM 46.4710 6.1790 318° Northwest 463 533 40,000 -180 Level FlightAware
10:52PM 46.5830 6.0330 318° Northwest 470 541 39,700 -540 Descending FlightAware
10:52PM 46.6470 5.9490 318° Northwest 466 536 39,100 -960 Descending FlightAware
10:53PM 46.7230 5.8660 323° Northwest 460 529 38,400 -840 Descending FlightAware
10:54PM 46.7890 5.7940 323° Northwest 461 531 38,000 -300 Descending FlightAware
10:54PM 46.8600 5.7130 322° Northwest 461 531 38,000  Level FlightAware
10:55PM 46.9250 5.6400 323° Northwest 459 528 38,000  Level FlightAware
10:56PM 46.9970 5.5580 322° Northwest 458 527 38,000  Level FlightAware
10:56PM 47.0650 5.4800 322° Northwest 456 525 38,000  Level FlightAware
10:57PM 47.1360 5.3990 322° Northwest 454 522 38,000  Level FlightAware
10:58PM 47.2140 5.3100 322° Northwest 454 522 38,000 -360 Level FlightAware
10:59PM 47.2780 5.2360 322° Northwest 455 524 37,500 -1,080 Descending FlightAware
10:59PM 47.3510 5.1510 322° Northwest 453 521 36,500 -1,800 Descending FlightAware
11:02PM 47.5413 4.8660 315° West  Level Estimated
11:03PM 47.6302 4.7318 315° West  Level Estimated
11:03PM 47.6740 4.7730 315° West 425 489 30,100  Level FlightAware
11:04PM 47.7420 4.6940 322° Northwest 416 479 28,800 -1,800 Descending FlightAware
11:04PM 47.8070 4.6170 322° Northwest 407 468 27,500 -1,800 Descending FlightAware
11:05PM 47.8670 4.5460 322° Northwest 401 461 26,300 -1,800 Descending FlightAware
11:06PM 47.9240 4.4780 321° Northwest 399 459 25,100 -1,860 Descending FlightAware
11:06PM 47.9790 4.4120 321° Northwest 393 452 23,900 -1,800 Descending FlightAware
11:07PM 48.0450 4.3330 321° Northwest 382 440 22,600 -1,740 Descending FlightAware
11:08PM 48.1020 4.2640 321° Northwest 375 432 21,400 -1,740 Descending FlightAware
11:08PM 48.1580 4.1960 321° Northwest 371 427 20,200 -1,680 Descending FlightAware
11:09PM 48.2110 4.1330 322° Northwest 357 411 19,200 -1,980 Descending FlightAware
11:10PM 48.2600 4.0730 321° Northwest 364 419 17,700 -2,100 Descending FlightAware
11:10PM 48.3180 4.0030 321° Northwest 359 413 16,300 -1,920 Descending FlightAware
11:11PM 48.3690 3.9400 321° Northwest 355 409 15,000 -1,860 Descending FlightAware
11:12PM 48.4260 3.8720 322° Northwest 347 399 13,700 -2,100 Descending FlightAware
11:13PM 48.4760 3.8100 321° Northwest 353 406 12,100 -1,860 Descending FlightAware
11:13PM 48.5360 3.7350 320° Northwest 353 406 11,000 -780 Descending FlightAware
11:14PM 48.5720 3.6550 304° West 348 400 11,000 -360 Level FlightAware
11:15PM 48.6020 3.5850 303° West 323 372 10,600 -660 Descending FlightAware
11:15PM 48.6240 3.5530 316° Northwest 308 354 10,400 -540 Descending FlightAware
11:16PM 48.6700 3.5140 331° Northwest 285 328 10,100 -660 Descending FlightAware
11:16PM 48.7010 3.4860 329° Northwest 278 320 9,700 -960 Descending FlightAware
11:17PM 48.7330 3.4580 330° Northwest 276 318 9,200 -1,080 Descending FlightAware
11:17PM 48.7660 3.4300 331° Northwest 270 311 8,700 -1,080 Descending FlightAware
11:17PM 48.7840 3.4150 331° Northwest 269 310 8,400 -1,200 Descending FlightAware
11:18PM 48.8110 3.3830 322° Northwest 265 305 7,800 -1,320 Descending FlightAware
11:18PM 48.8360 3.3460 316° Northwest 263 303 7,200 -1,200 Descending FlightAware
11:18PM 48.8450 3.3330 316° Northwest 263 303 7,000 -1,320 Descending FlightAware
11:19PM 48.8690 3.2990 317° Northwest 262 302 6,400 -1,320 Descending FlightAware
11:19PM 48.8830 3.2780 315° West 259 298 6,100 -1,200 Descending FlightAware
11:20PM 48.9080 3.2420 317° Northwest 254 292 5,500 -1,260 Descending FlightAware
11:20PM 48.9310 3.2040 313° West 254 292 4,900 -1,320 Descending FlightAware
11:21PM 48.9490 3.1640 304° West 254 292 4,300 -1,260 Descending FlightAware
11:21PM 48.9570 3.1470 306° West 253 291 4,100 -780 Descending FlightAware
11:21PM 48.9770 3.1060 307° West 241 277 3,800 -420 Descending FlightAware
11:22PM 48.9870 3.0850 306° West 227 261 3,800  Level FlightAware
11:22PM 49.0040 3.0490 306° West 222 255 3,800  Level FlightAware
11:22PM 49.0150 3.0080 292° West 205 236 3,800  Level FlightAware
11:23PM 49.0150 2.9930 270° West 195 224 3,800  Level FlightAware
11:23PM 49.0140 2.9550 268° West 179 206 3,800  Level FlightAware
11:24PM 49.0120 2.9200 265° West 180 207 3,800  Level FlightAware
11:24PM 49.0100 2.9000 261° West 178 205 3,800 -300 Level FlightAware
11:24PM 49.0090 2.8650 268° West 174 200 3,600 -720 Descending FlightAware
11:25PM 49.0070 2.8340 264° West 181 208 3,200 -1,080 Descending FlightAware
11:25PM 49.0060 2.8140 266° West 181 208 2,900 -1,200 Descending FlightAware
11:25PM 49.0040 2.7810 265° West 177 204 2,400 -1,020 Descending FlightAware
11:26PM 49.0030 2.7610 266° West 175 201 2,200 -960 Descending FlightAware
11:26PM 49.0020 2.7340 267° West 166 191 1,800 -960 Descending FlightAware
11:27PM 49.0000 2.7030 264° West 143 165 1,400 -780 Descending FlightAware
11:27PM 48.9990 2.6850 265° West 134 154 1,200 -660 Descending FlightAware
11:27PM 48.9980 2.6590 267° West 130 150 900 -660 Descending FlightAware
11:28PM 48.9970 2.6340 267° West 127 146 600 -720 Descending FlightAware
11:28PM 48.9950 2.6140 261° West 129 148 300 -660 Descending FlightAware
11:29PM 48.9940 2.5930 266° West 130 150 100 -540 Descending FlightAware
11:29PM 48.9940 2.5780 270° West 57 66 -300 Descending FlightAware
11:32PM 49.0128 2.5500 316° Northwest  Level Estimated
11:33PM 49.0128 2.5500 180° South  Level Estimated
11:34PM 49.0128 2.5500 180° South  Level Estimated
11:35PM 49.0128 2.5500 180° South  Level Estimated
11:36PM 49.0128 2.5500 180° South  Level Estimated
11:37PM 49.0128 2.5500 180° South  Level Estimated
11:38PM 49.0128 2.5500 180° South  Level Estimated
11:39PM 49.0128 2.5500 180° South  Level Estimated
11:40PM 49.0128 2.5500 180° South  Level Estimated
11:41PM 49.0128 2.5500 180° South  Level Estimated
11:42PM 49.0128 2.5500 180° South  Level Estimated
11:43PM 49.0128 2.5500 180° South  Level Estimated
11:44PM 49.0128 2.5500 180° South  Level Estimated
11:45PM 49.0128 2.5500 180° South  Level Estimated